sensor_id;sensor_type;location;lat;lon;timestamp;temperature;humidity
67901;DHT22;54700;51.796;10.956;2022-12-18T00:01:30;-5.60;85.20
67901;DHT22;54700;51.796;10.956;2022-12-18T00:04:00;-5.50;85.20
67901;DHT22;54700;51.796;10.956;2022-12-18T00:06:31;-5.60;84.90
67901;DHT22;54700;51.796;10.956;2022-12-18T00:09:00;-5.60;85.20
67901;DHT22;54700;51.796;10.956;2022-12-18T00:11:32;-5.50;84.90
67901;DHT22;54700;51.796;10.956;2022-12-18T00:14:09;-5.50;84.70
67901;DHT22;54700;51.796;10.956;2022-12-18T00:16:42;-5.60;84.60
67901;DHT22;54700;51.796;10.956;2022-12-18T00:19:12;-5.70;84.90
67901;DHT22;54700;51.796;10.956;2022-12-18T00:21:40;-5.70;85.00
67901;DHT22;54700;51.796;10.956;2022-12-18T00:24:08;-5.70;85.20
67901;DHT22;54700;51.796;10.956;2022-12-18T00:26:42;-5.70;86.00
67901;DHT22;54700;51.796;10.956;2022-12-18T00:29:10;-5.70;85.30
67901;DHT22;54700;51.796;10.956;2022-12-18T00:31:42;-5.80;85.10
67901;DHT22;54700;51.796;10.956;2022-12-18T00:34:10;-5.70;85.50
67901;DHT22;54700;51.796;10.956;2022-12-18T00:36:40;-5.70;85.50
67901;DHT22;54700;51.796;10.956;2022-12-18T00:39:09;-5.70;85.30
67901;DHT22;54700;51.796;10.956;2022-12-18T00:41:37;-5.70;85.30
67901;DHT22;54700;51.796;10.956;2022-12-18T00:44:24;-5.70;85.00
67901;DHT22;54700;51.796;10.956;2022-12-18T00:46:52;-5.70;85.30
67901;DHT22;54700;51.796;10.956;2022-12-18T00:49:19;-5.60;85.00
67901;DHT22;54700;51.796;10.956;2022-12-18T00:51:47;-5.50;84.80
67901;DHT22;54700;51.796;10.956;2022-12-18T00:54:15;-5.50;84.30
67901;DHT22;54700;51.796;10.956;2022-12-18T00:56:43;-5.50;84.00
67901;DHT22;54700;51.796;10.956;2022-12-18T00:59:10;-5.50;83.40
67901;DHT22;54700;51.796;10.956;2022-12-18T01:01:39;-5.60;83.50
67901;DHT22;54700;51.796;10.956;2022-12-18T01:04:06;-5.60;83.90
67901;DHT22;54700;51.796;10.956;2022-12-18T01:06:33;-5.60;83.80
67901;DHT22;54700;51.796;10.956;2022-12-18T01:09:01;-5.70;83.90
67901;DHT22;54700;51.796;10.956;2022-12-18T01:11:28;-5.60;84.30
67901;DHT22;54700;51.796;10.956;2022-12-18T01:13:55;-5.60;84.70
67901;DHT22;54700;51.796;10.956;2022-12-18T01:16:23;-5.50;85.10
67901;DHT22;54700;51.796;10.956;2022-12-18T01:18:53;-5.40;84.50
67901;DHT22;54700;51.796;10.956;2022-12-18T01:21:21;-5.20;84.00
67901;DHT22;54700;51.796;10.956;2022-12-18T01:23:51;-5.10;83.30
67901;DHT22;54700;51.796;10.956;2022-12-18T01:26:19;-5.00;83.10
67901;DHT22;54700;51.796;10.956;2022-12-18T01:28:47;-4.90;82.80
67901;DHT22;54700;51.796;10.956;2022-12-18T01:31:21;-4.80;82.20
67901;DHT22;54700;51.796;10.956;2022-12-18T01:33:50;-4.80;81.60
67901;DHT22;54700;51.796;10.956;2022-12-18T01:36:21;-4.80;81.50
67901;DHT22;54700;51.796;10.956;2022-12-18T01:38:49;-4.80;81.60
67901;DHT22;54700;51.796;10.956;2022-12-18T01:41:18;-4.80;81.50
67901;DHT22;54700;51.796;10.956;2022-12-18T01:43:49;-4.80;81.60
67901;DHT22;54700;51.796;10.956;2022-12-18T01:46:19;-4.80;81.80
67901;DHT22;54700;51.796;10.956;2022-12-18T01:48:48;-4.90;81.90
67901;DHT22;54700;51.796;10.956;2022-12-18T01:51:31;-4.90;81.60
67901;DHT22;54700;51.796;10.956;2022-12-18T01:54:00;-5.00;81.30
67901;DHT22;54700;51.796;10.956;2022-12-18T01:56:28;-5.10;81.30
67901;DHT22;54700;51.796;10.956;2022-12-18T01:58:57;-5.20;81.50
67901;DHT22;54700;51.796;10.956;2022-12-18T02:01:29;-5.30;81.70
67901;DHT22;54700;51.796;10.956;2022-12-18T02:04:10;-5.40;81.90
67901;DHT22;54700;51.796;10.956;2022-12-18T02:06:49;-5.60;82.40
67901;DHT22;54700;51.796;10.956;2022-12-18T02:09:24;-5.60;82.90
67901;DHT22;54700;51.796;10.956;2022-12-18T02:11:59;-5.70;83.50
67901;DHT22;54700;51.796;10.956;2022-12-18T02:14:33;-5.70;84.00
67901;DHT22;54700;51.796;10.956;2022-12-18T02:17:11;-5.60;84.40
67901;DHT22;54700;51.796;10.956;2022-12-18T02:19:45;-5.50;84.10
67901;DHT22;54700;51.796;10.956;2022-12-18T02:22:29;-5.30;84.10
67901;DHT22;54700;51.796;10.956;2022-12-18T02:25:07;-5.30;83.60
67901;DHT22;54700;51.796;10.956;2022-12-18T02:27:51;-5.20;83.40
67901;DHT22;54700;51.796;10.956;2022-12-18T02:30:21;-5.20;83.10
67901;DHT22;54700;51.796;10.956;2022-12-18T02:32:50;-5.20;82.80
67901;DHT22;54700;51.796;10.956;2022-12-18T02:35:20;-5.10;82.80
67901;DHT22;54700;51.796;10.956;2022-12-18T02:37:51;-5.10;82.80
67901;DHT22;54700;51.796;10.956;2022-12-18T02:40:21;-5.10;82.50
67901;DHT22;54700;51.796;10.956;2022-12-18T02:42:52;-5.10;82.40
67901;DHT22;54700;51.796;10.956;2022-12-18T02:45:19;-5.00;82.00
67901;DHT22;54700;51.796;10.956;2022-12-18T02:47:48;-5.00;81.80
67901;DHT22;54700;51.796;10.956;2022-12-18T02:50:18;-5.00;81.70
67901;DHT22;54700;51.796;10.956;2022-12-18T02:52:54;-5.00;81.50
67901;DHT22;54700;51.796;10.956;2022-12-18T02:55:33;-5.00;81.50
67901;DHT22;54700;51.796;10.956;2022-12-18T02:58:12;-5.00;81.50
67901;DHT22;54700;51.796;10.956;2022-12-18T03:00:48;-5.10;81.50
67901;DHT22;54700;51.796;10.956;2022-12-18T03:03:22;-5.20;81.50
67901;DHT22;54700;51.796;10.956;2022-12-18T03:05:56;-5.30;81.40
67901;DHT22;54700;51.796;10.956;2022-12-18T03:08:29;-5.30;81.70
67901;DHT22;54700;51.796;10.956;2022-12-18T03:11:02;-5.40;82.20
67901;DHT22;54700;51.796;10.956;2022-12-18T03:13:35;-5.40;82.60
67901;DHT22;54700;51.796;10.956;2022-12-18T03:16:09;-5.40;82.70
67901;DHT22;54700;51.796;10.956;2022-12-18T03:18:41;-5.30;82.80
67901;DHT22;54700;51.796;10.956;2022-12-18T03:21:12;-5.30;82.90
67901;DHT22;54700;51.796;10.956;2022-12-18T03:23:44;-5.30;82.70
67901;DHT22;54700;51.796;10.956;2022-12-18T03:26:15;-5.20;82.70
67901;DHT22;54700;51.796;10.956;2022-12-18T03:28:49;-5.20;82.30
67901;DHT22;54700;51.796;10.956;2022-12-18T03:31:19;-5.20;82.10
67901;DHT22;54700;51.796;10.956;2022-12-18T03:33:52;-5.30;82.00
67901;DHT22;54700;51.796;10.956;2022-12-18T03:36:21;-5.30;81.90
67901;DHT22;54700;51.796;10.956;2022-12-18T03:38:50;-5.50;81.80
67901;DHT22;54700;51.796;10.956;2022-12-18T03:41:18;-5.50;82.10
67901;DHT22;54700;51.796;10.956;2022-12-18T03:43:52;-5.60;82.50
67901;DHT22;54700;51.796;10.956;2022-12-18T03:46:28;-5.50;83.20
67901;DHT22;54700;51.796;10.956;2022-12-18T03:49:02;-5.40;83.00
67901;DHT22;54700;51.796;10.956;2022-12-18T03:51:39;-5.20;82.60
67901;DHT22;54700;51.796;10.956;2022-12-18T03:54:15;-5.10;82.00
67901;DHT22;54700;51.796;10.956;2022-12-18T03:56:45;-5.00;81.60
67901;DHT22;54700;51.796;10.956;2022-12-18T03:59:19;-5.00;81.30
67901;DHT22;54700;51.796;10.956;2022-12-18T04:01:47;-5.10;81.20
67901;DHT22;54700;51.796;10.956;2022-12-18T04:04:17;-5.10;80.70
67901;DHT22;54700;51.796;10.956;2022-12-18T04:06:46;-5.10;80.90
67901;DHT22;54700;51.796;10.956;2022-12-18T04:09:17;-5.20;81.00
67901;DHT22;54700;51.796;10.956;2022-12-18T04:11:46;-5.20;80.70
67901;DHT22;54700;51.796;10.956;2022-12-18T04:14:20;-5.20;80.40
67901;DHT22;54700;51.796;10.956;2022-12-18T04:16:47;-5.20;80.40
67901;DHT22;54700;51.796;10.956;2022-12-18T04:19:15;-5.30;80.50
67901;DHT22;54700;51.796;10.956;2022-12-18T04:21:45;-5.30;80.50
67901;DHT22;54700;51.796;10.956;2022-12-18T04:24:13;-5.30;80.30
67901;DHT22;54700;51.796;10.956;2022-12-18T04:26:42;-5.40;80.30
67901;DHT22;54700;51.796;10.956;2022-12-18T04:29:10;-5.30;80.60
67901;DHT22;54700;51.796;10.956;2022-12-18T04:31:40;-5.30;80.60
67901;DHT22;54700;51.796;10.956;2022-12-18T04:34:10;-5.40;80.70
67901;DHT22;54700;51.796;10.956;2022-12-18T04:36:39;-5.40;80.70
67901;DHT22;54700;51.796;10.956;2022-12-18T04:39:06;-5.40;80.70
67901;DHT22;54700;51.796;10.956;2022-12-18T04:41:34;-5.40;80.80
67901;DHT22;54700;51.796;10.956;2022-12-18T04:44:04;-5.40;80.80
67901;DHT22;54700;51.796;10.956;2022-12-18T04:46:32;-5.40;80.80
67901;DHT22;54700;51.796;10.956;2022-12-18T04:49:01;-5.40;80.90
67901;DHT22;54700;51.796;10.956;2022-12-18T04:51:30;-5.40;80.80
67901;DHT22;54700;51.796;10.956;2022-12-18T04:53:57;-5.30;80.60
67901;DHT22;54700;51.796;10.956;2022-12-18T04:56:25;-5.30;80.50
67901;DHT22;54700;51.796;10.956;2022-12-18T04:58:52;-5.30;80.50
67901;DHT22;54700;51.796;10.956;2022-12-18T05:01:20;-5.30;80.60
67901;DHT22;54700;51.796;10.956;2022-12-18T05:03:51;-5.40;80.50
67901;DHT22;54700;51.796;10.956;2022-12-18T05:06:20;-5.40;80.50
67901;DHT22;54700;51.796;10.956;2022-12-18T05:08:48;-5.40;80.60
67901;DHT22;54700;51.796;10.956;2022-12-18T05:11:16;-5.40;80.90
67901;DHT22;54700;51.796;10.956;2022-12-18T05:13:44;-5.50;80.80
67901;DHT22;54700;51.796;10.956;2022-12-18T05:16:11;-5.60;80.60
67901;DHT22;54700;51.796;10.956;2022-12-18T05:18:39;-5.70;80.60
67901;DHT22;54700;51.796;10.956;2022-12-18T05:21:08;-5.80;81.00
67901;DHT22;54700;51.796;10.956;2022-12-18T05:23:37;-5.90;81.30
67901;DHT22;54700;51.796;10.956;2022-12-18T05:26:07;-6.00;81.70
67901;DHT22;54700;51.796;10.956;2022-12-18T05:28:34;-6.00;82.00
67901;DHT22;54700;51.796;10.956;2022-12-18T05:31:03;-6.10;82.20
67901;DHT22;54700;51.796;10.956;2022-12-18T05:33:34;-6.10;82.50
67901;DHT22;54700;51.796;10.956;2022-12-18T05:36:02;-6.20;82.50
67901;DHT22;54700;51.796;10.956;2022-12-18T05:38:32;-6.30;82.90
67901;DHT22;54700;51.796;10.956;2022-12-18T05:41:06;-6.10;84.00
67901;DHT22;54700;51.796;10.956;2022-12-18T05:43:35;-6.00;83.30
67901;DHT22;54700;51.796;10.956;2022-12-18T05:46:06;-6.00;83.00
67901;DHT22;54700;51.796;10.956;2022-12-18T05:48:36;-5.90;83.30
67901;DHT22;54700;51.796;10.956;2022-12-18T05:51:05;-5.80;83.20
67901;DHT22;54700;51.796;10.956;2022-12-18T05:53:35;-5.70;82.80
67901;DHT22;54700;51.796;10.956;2022-12-18T05:56:07;-5.60;82.20
67901;DHT22;54700;51.796;10.956;2022-12-18T05:58:36;-5.50;81.80
67901;DHT22;54700;51.796;10.956;2022-12-18T06:01:07;-5.40;81.40
67901;DHT22;54700;51.796;10.956;2022-12-18T06:03:37;-5.40;80.90
67901;DHT22;54700;51.796;10.956;2022-12-18T06:06:11;-5.30;80.80
67901;DHT22;54700;51.796;10.956;2022-12-18T06:08:41;-5.30;80.60
67901;DHT22;54700;51.796;10.956;2022-12-18T06:11:10;-5.30;80.40
67901;DHT22;54700;51.796;10.956;2022-12-18T06:13:41;-5.20;80.30
67901;DHT22;54700;51.796;10.956;2022-12-18T06:16:09;-5.20;80.10
67901;DHT22;54700;51.796;10.956;2022-12-18T06:18:36;-5.20;80.00
67901;DHT22;54700;51.796;10.956;2022-12-18T06:21:03;-5.10;80.00
67901;DHT22;54700;51.796;10.956;2022-12-18T06:23:31;-5.10;79.70
67901;DHT22;54700;51.796;10.956;2022-12-18T06:25:58;-5.10;79.70
67901;DHT22;54700;51.796;10.956;2022-12-18T06:28:32;-5.10;79.80
67901;DHT22;54700;51.796;10.956;2022-12-18T06:31:02;-5.20;79.70
67901;DHT22;54700;51.796;10.956;2022-12-18T06:33:32;-5.20;80.00
67901;DHT22;54700;51.796;10.956;2022-12-18T06:36:00;-5.30;80.20
67901;DHT22;54700;51.796;10.956;2022-12-18T06:38:29;-5.30;80.60
67901;DHT22;54700;51.796;10.956;2022-12-18T06:41:05;-5.30;80.80
67901;DHT22;54700;51.796;10.956;2022-12-18T06:43:36;-5.40;81.00
67901;DHT22;54700;51.796;10.956;2022-12-18T06:46:04;-5.40;81.20
67901;DHT22;54700;51.796;10.956;2022-12-18T06:48:32;-5.40;81.30
67901;DHT22;54700;51.796;10.956;2022-12-18T06:50:59;-5.40;81.60
67901;DHT22;54700;51.796;10.956;2022-12-18T06:53:33;-5.40;81.70
67901;DHT22;54700;51.796;10.956;2022-12-18T06:56:03;-5.40;81.70
67901;DHT22;54700;51.796;10.956;2022-12-18T06:58:34;-5.40;81.70
67901;DHT22;54700;51.796;10.956;2022-12-18T07:01:03;-5.40;81.90
67901;DHT22;54700;51.796;10.956;2022-12-18T07:03:32;-5.30;82.70
67901;DHT22;54700;51.796;10.956;2022-12-18T07:06:00;-5.20;81.50
67901;DHT22;54700;51.796;10.956;2022-12-18T07:08:28;-5.10;80.90
67901;DHT22;54700;51.796;10.956;2022-12-18T07:10:55;-5.00;80.40
67901;DHT22;54700;51.796;10.956;2022-12-18T07:13:23;-5.00;80.20
67901;DHT22;54700;51.796;10.956;2022-12-18T07:15:52;-5.00;80.20
67901;DHT22;54700;51.796;10.956;2022-12-18T07:18:20;-5.00;80.00
67901;DHT22;54700;51.796;10.956;2022-12-18T07:20:48;-5.00;79.80
67901;DHT22;54700;51.796;10.956;2022-12-18T07:23:15;-5.00;79.70
67901;DHT22;54700;51.796;10.956;2022-12-18T07:25:42;-5.00;79.70
67901;DHT22;54700;51.796;10.956;2022-12-18T07:28:12;-4.90;79.80
67901;DHT22;54700;51.796;10.956;2022-12-18T07:30:40;-5.00;79.70
67901;DHT22;54700;51.796;10.956;2022-12-18T07:33:07;-5.00;79.80
67901;DHT22;54700;51.796;10.956;2022-12-18T07:35:35;-5.00;79.70
67901;DHT22;54700;51.796;10.956;2022-12-18T07:38:02;-5.00;79.60
67901;DHT22;54700;51.796;10.956;2022-12-18T07:40:30;-5.10;79.70
67901;DHT22;54700;51.796;10.956;2022-12-18T07:43:00;-5.10;79.70
67901;DHT22;54700;51.796;10.956;2022-12-18T07:45:28;-5.10;80.10
67901;DHT22;54700;51.796;10.956;2022-12-18T07:47:55;-5.10;80.20
67901;DHT22;54700;51.796;10.956;2022-12-18T07:50:22;-5.20;80.20
67901;DHT22;54700;51.796;10.956;2022-12-18T07:52:51;-5.20;80.40
67901;DHT22;54700;51.796;10.956;2022-12-18T07:55:19;-5.20;80.30
67901;DHT22;54700;51.796;10.956;2022-12-18T07:57:47;-5.20;79.90
67901;DHT22;54700;51.796;10.956;2022-12-18T08:00:16;-5.10;79.90
67901;DHT22;54700;51.796;10.956;2022-12-18T08:02:43;-5.00;79.90
67901;DHT22;54700;51.796;10.956;2022-12-18T08:05:11;-5.00;79.70
67901;DHT22;54700;51.796;10.956;2022-12-18T08:07:38;-4.90;79.50
67901;DHT22;54700;51.796;10.956;2022-12-18T08:10:10;-4.90;79.50
67901;DHT22;54700;51.796;10.956;2022-12-18T08:12:37;-4.80;79.20
67901;DHT22;54700;51.796;10.956;2022-12-18T08:15:05;-4.80;79.90
67901;DHT22;54700;51.796;10.956;2022-12-18T08:17:38;-4.80;79.20
67901;DHT22;54700;51.796;10.956;2022-12-18T08:20:07;-4.80;79.20
67901;DHT22;54700;51.796;10.956;2022-12-18T08:22:38;-4.70;79.10
67901;DHT22;54700;51.796;10.956;2022-12-18T08:25:06;-4.70;79.20
67901;DHT22;54700;51.796;10.956;2022-12-18T08:27:35;-4.70;79.20
67901;DHT22;54700;51.796;10.956;2022-12-18T08:30:03;-4.70;79.00
67901;DHT22;54700;51.796;10.956;2022-12-18T08:32:32;-4.60;78.80
67901;DHT22;54700;51.796;10.956;2022-12-18T08:35:00;-4.60;78.50
67901;DHT22;54700;51.796;10.956;2022-12-18T08:37:27;-4.50;78.30
67901;DHT22;54700;51.796;10.956;2022-12-18T08:39:55;-4.40;77.80
67901;DHT22;54700;51.796;10.956;2022-12-18T08:42:22;-4.30;77.90
67901;DHT22;54700;51.796;10.956;2022-12-18T08:45:09;-4.30;77.80
67901;DHT22;54700;51.796;10.956;2022-12-18T08:47:37;-4.30;77.70
67901;DHT22;54700;51.796;10.956;2022-12-18T08:50:05;-4.20;77.50
67901;DHT22;54700;51.796;10.956;2022-12-18T08:52:33;-4.10;77.40
67901;DHT22;54700;51.796;10.956;2022-12-18T08:55:00;-4.10;77.20
67901;DHT22;54700;51.796;10.956;2022-12-18T08:57:28;-4.10;77.20
67901;DHT22;54700;51.796;10.956;2022-12-18T08:59:56;-4.00;77.30
67901;DHT22;54700;51.796;10.956;2022-12-18T09:02:24;-4.00;77.30
67901;DHT22;54700;51.796;10.956;2022-12-18T09:04:51;-4.00;77.50
67901;DHT22;54700;51.796;10.956;2022-12-18T09:07:18;-3.90;77.50
67901;DHT22;54700;51.796;10.956;2022-12-18T09:09:46;-3.90;77.60
67901;DHT22;54700;51.796;10.956;2022-12-18T09:12:13;-3.90;77.80
67901;DHT22;54700;51.796;10.956;2022-12-18T09:14:40;-3.90;78.00
67901;DHT22;54700;51.796;10.956;2022-12-18T09:17:08;-3.90;78.10
67901;DHT22;54700;51.796;10.956;2022-12-18T09:19:37;-3.90;78.10
67901;DHT22;54700;51.796;10.956;2022-12-18T09:22:05;-3.90;78.20
67901;DHT22;54700;51.796;10.956;2022-12-18T09:24:32;-3.80;78.30
67901;DHT22;54700;51.796;10.956;2022-12-18T09:26:59;-3.70;78.00
67901;DHT22;54700;51.796;10.956;2022-12-18T09:29:27;-3.60;77.50
67901;DHT22;54700;51.796;10.956;2022-12-18T09:31:54;-3.60;77.50
67901;DHT22;54700;51.796;10.956;2022-12-18T09:34:22;-3.60;77.30
67901;DHT22;54700;51.796;10.956;2022-12-18T09:36:53;-3.60;77.50
67901;DHT22;54700;51.796;10.956;2022-12-18T09:39:20;-3.60;77.30
67901;DHT22;54700;51.796;10.956;2022-12-18T09:41:50;-3.50;77.50
67901;DHT22;54700;51.796;10.956;2022-12-18T09:44:21;-3.50;77.60
67901;DHT22;54700;51.796;10.956;2022-12-18T09:46:58;-3.40;77.50
67901;DHT22;54700;51.796;10.956;2022-12-18T09:49:32;-3.30;77.20
67901;DHT22;54700;51.796;10.956;2022-12-18T09:52:05;-3.20;77.20
67901;DHT22;54700;51.796;10.956;2022-12-18T09:54:48;-3.10;76.90
67901;DHT22;54700;51.796;10.956;2022-12-18T09:57:28;-3.10;76.70
67901;DHT22;54700;51.796;10.956;2022-12-18T10:00:03;-3.10;76.80
67901;DHT22;54700;51.796;10.956;2022-12-18T10:02:34;-3.10;76.70
67901;DHT22;54700;51.796;10.956;2022-12-18T10:05:05;-3.00;76.70
67901;DHT22;54700;51.796;10.956;2022-12-18T10:07:40;-2.90;76.30
67901;DHT22;54700;51.796;10.956;2022-12-18T10:10:17;-2.80;76.30
67901;DHT22;54700;51.796;10.956;2022-12-18T10:12:55;-2.80;76.10
67901;DHT22;54700;51.796;10.956;2022-12-18T10:15:34;-2.70;75.90
67901;DHT22;54700;51.796;10.956;2022-12-18T10:18:13;-2.60;75.70
67901;DHT22;54700;51.796;10.956;2022-12-18T10:20:49;-2.60;75.30
67901;DHT22;54700;51.796;10.956;2022-12-18T10:23:32;-2.50;75.00
67901;DHT22;54700;51.796;10.956;2022-12-18T10:26:09;-2.50;75.20
67901;DHT22;54700;51.796;10.956;2022-12-18T10:28:39;-2.50;75.20
67901;DHT22;54700;51.796;10.956;2022-12-18T10:31:12;-2.60;75.60
67901;DHT22;54700;51.796;10.956;2022-12-18T10:33:44;-2.70;75.80
67901;DHT22;54700;51.796;10.956;2022-12-18T10:36:13;-2.70;76.10
67901;DHT22;54700;51.796;10.956;2022-12-18T10:38:46;-2.60;76.00
67901;DHT22;54700;51.796;10.956;2022-12-18T10:41:24;-2.60;76.20
67901;DHT22;54700;51.796;10.956;2022-12-18T10:44:11;-2.50;76.10
67901;DHT22;54700;51.796;10.956;2022-12-18T10:46:53;-2.40;75.60
67901;DHT22;54700;51.796;10.956;2022-12-18T10:49:34;-2.40;75.60
67901;DHT22;54700;51.796;10.956;2022-12-18T10:52:06;-2.30;75.60
67901;DHT22;54700;51.796;10.956;2022-12-18T10:54:54;-2.30;75.60
67901;DHT22;54700;51.796;10.956;2022-12-18T10:57:31;-2.30;75.30
67901;DHT22;54700;51.796;10.956;2022-12-18T11:00:20;-2.20;75.00
67901;DHT22;54700;51.796;10.956;2022-12-18T11:02:55;-2.10;74.80
67901;DHT22;54700;51.796;10.956;2022-12-18T11:05:27;-2.10;75.10
67901;DHT22;54700;51.796;10.956;2022-12-18T11:08:04;-2.10;75.20
67901;DHT22;54700;51.796;10.956;2022-12-18T11:10:36;-2.10;75.40
67901;DHT22;54700;51.796;10.956;2022-12-18T11:13:15;-2.10;75.60
67901;DHT22;54700;51.796;10.956;2022-12-18T11:15:59;-2.00;75.90
67901;DHT22;54700;51.796;10.956;2022-12-18T11:18:37;-1.90;75.70
67901;DHT22;54700;51.796;10.956;2022-12-18T11:21:05;-1.90;75.60
67901;DHT22;54700;51.796;10.956;2022-12-18T11:23:44;-1.80;75.20
67901;DHT22;54700;51.796;10.956;2022-12-18T11:26:21;-1.70;74.50
67901;DHT22;54700;51.796;10.956;2022-12-18T11:29:24;-1.60;74.30
67901;DHT22;54700;51.796;10.956;2022-12-18T11:32:19;-1.50;74.20
67901;DHT22;54700;51.796;10.956;2022-12-18T11:35:15;-1.40;73.30
67901;DHT22;54700;51.796;10.956;2022-12-18T11:37:48;-1.30;73.00
67901;DHT22;54700;51.796;10.956;2022-12-18T11:40:25;-1.20;72.20
67901;DHT22;54700;51.796;10.956;2022-12-18T11:43:04;-1.10;71.50
67901;DHT22;54700;51.796;10.956;2022-12-18T11:45:43;-1.00;71.20
67901;DHT22;54700;51.796;10.956;2022-12-18T11:48:24;-0.90;71.30
67901;DHT22;54700;51.796;10.956;2022-12-18T11:51:02;-0.90;71.50
67901;DHT22;54700;51.796;10.956;2022-12-18T11:53:32;-0.80;70.60
67901;DHT22;54700;51.796;10.956;2022-12-18T11:56:11;-0.80;70.30
67901;DHT22;54700;51.796;10.956;2022-12-18T11:58:57;-0.70;70.20
67901;DHT22;54700;51.796;10.956;2022-12-18T12:01:42;-0.60;69.60
67901;DHT22;54700;51.796;10.956;2022-12-18T12:05:00;-0.60;70.00
67901;DHT22;54700;51.796;10.956;2022-12-18T12:08:04;-0.60;69.70
67901;DHT22;54700;51.796;10.956;2022-12-18T12:10:48;-0.60;69.90
67901;DHT22;54700;51.796;10.956;2022-12-18T12:13:32;-0.60;69.60
67901;DHT22;54700;51.796;10.956;2022-12-18T12:16:23;-0.60;69.90
67901;DHT22;54700;51.796;10.956;2022-12-18T12:19:02;-0.60;69.90
67901;DHT22;54700;51.796;10.956;2022-12-18T12:21:49;-0.60;70.30
67901;DHT22;54700;51.796;10.956;2022-12-18T12:24:37;-0.60;70.10
67901;DHT22;54700;51.796;10.956;2022-12-18T12:27:18;-0.60;70.30
67901;DHT22;54700;51.796;10.956;2022-12-18T12:29:59;-0.60;70.40
67901;DHT22;54700;51.796;10.956;2022-12-18T12:32:49;-0.60;70.60
67901;DHT22;54700;51.796;10.956;2022-12-18T12:35:37;-0.60;70.80
67901;DHT22;54700;51.796;10.956;2022-12-18T12:38:17;-0.70;71.00
67901;DHT22;54700;51.796;10.956;2022-12-18T12:40:51;-0.70;70.30
67901;DHT22;54700;51.796;10.956;2022-12-18T12:43:28;-0.70;70.20
67901;DHT22;54700;51.796;10.956;2022-12-18T12:46:02;-0.70;69.90
67901;DHT22;54700;51.796;10.956;2022-12-18T12:48:40;-0.70;69.70
67901;DHT22;54700;51.796;10.956;2022-12-18T12:51:17;-0.70;69.10
67901;DHT22;54700;51.796;10.956;2022-12-18T12:53:46;-0.70;68.90
67901;DHT22;54700;51.796;10.956;2022-12-18T12:56:18;-0.80;69.30
67901;DHT22;54700;51.796;10.956;2022-12-18T12:58:50;-0.90;69.50
67901;DHT22;54700;51.796;10.956;2022-12-18T13:01:25;-0.90;69.20
67901;DHT22;54700;51.796;10.956;2022-12-18T13:04:03;-1.00;69.60
67901;DHT22;54700;51.796;10.956;2022-12-18T13:06:41;-1.00;69.80
67901;DHT22;54700;51.796;10.956;2022-12-18T13:09:13;-1.10;69.90
67901;DHT22;54700;51.796;10.956;2022-12-18T13:11:40;-1.20;69.50
67901;DHT22;54700;51.796;10.956;2022-12-18T13:14:27;-1.20;69.70
67901;DHT22;54700;51.796;10.956;2022-12-18T13:19:44;-1.30;68.60
67901;DHT22;54700;51.796;10.956;2022-12-18T13:24:57;-1.30;67.80
67901;DHT22;54700;51.796;10.956;2022-12-18T13:27:46;-1.30;67.00
67901;DHT22;54700;51.796;10.956;2022-12-18T13:30:45;-1.30;67.30
67901;DHT22;54700;51.796;10.956;2022-12-18T13:45:36;-1.30;66.30
67901;DHT22;54700;51.796;10.956;2022-12-18T13:48:10;-1.20;66.10
67901;DHT22;54700;51.796;10.956;2022-12-18T13:50:49;-1.20;67.80
67901;DHT22;54700;51.796;10.956;2022-12-18T13:53:21;-1.20;71.30
67901;DHT22;54700;51.796;10.956;2022-12-18T13:55:53;-1.30;71.80
67901;DHT22;54700;51.796;10.956;2022-12-18T13:58:20;-1.40;72.30
67901;DHT22;54700;51.796;10.956;2022-12-18T14:00:47;-1.40;71.60
67901;DHT22;54700;51.796;10.956;2022-12-18T14:03:19;-1.50;70.90
67901;DHT22;54700;51.796;10.956;2022-12-18T14:05:52;-1.50;70.90
67901;DHT22;54700;51.796;10.956;2022-12-18T14:08:22;-1.50;71.20
67901;DHT22;54700;51.796;10.956;2022-12-18T14:10:53;-1.50;71.50
67901;DHT22;54700;51.796;10.956;2022-12-18T14:13:22;-1.50;71.80
67901;DHT22;54700;51.796;10.956;2022-12-18T14:15:53;-1.50;71.90
67901;DHT22;54700;51.796;10.956;2022-12-18T14:18:20;-1.60;72.20
67901;DHT22;54700;51.796;10.956;2022-12-18T14:20:50;-1.60;72.40
67901;DHT22;54700;51.796;10.956;2022-12-18T14:23:30;-1.60;71.60
67901;DHT22;54700;51.796;10.956;2022-12-18T14:25:59;-1.60;70.40
67901;DHT22;54700;51.796;10.956;2022-12-18T14:28:27;-1.60;70.10
67901;DHT22;54700;51.796;10.956;2022-12-18T14:30:54;-1.50;69.00
67901;DHT22;54700;51.796;10.956;2022-12-18T14:33:22;-1.60;69.10
67901;DHT22;54700;51.796;10.956;2022-12-18T14:35:54;-1.50;68.70
67901;DHT22;54700;51.796;10.956;2022-12-18T14:38:25;-1.50;68.60
67901;DHT22;54700;51.796;10.956;2022-12-18T14:40:56;-1.50;68.20
67901;DHT22;54700;51.796;10.956;2022-12-18T14:43:24;-1.50;68.10
67901;DHT22;54700;51.796;10.956;2022-12-18T14:45:51;-1.40;67.70
67901;DHT22;54700;51.796;10.956;2022-12-18T14:48:19;-1.40;67.70
67901;DHT22;54700;51.796;10.956;2022-12-18T14:50:54;-1.40;67.70
67901;DHT22;54700;51.796;10.956;2022-12-18T14:53:25;-1.40;67.60
67901;DHT22;54700;51.796;10.956;2022-12-18T14:56:00;-1.40;67.90
67901;DHT22;54700;51.796;10.956;2022-12-18T14:58:27;-1.50;68.30
67901;DHT22;54700;51.796;10.956;2022-12-18T15:00:54;-1.50;68.80
67901;DHT22;54700;51.796;10.956;2022-12-18T15:03:21;-1.60;69.70
67901;DHT22;54700;51.796;10.956;2022-12-18T15:05:50;-1.60;68.60
67901;DHT22;54700;51.796;10.956;2022-12-18T15:08:31;-1.60;68.40
67901;DHT22;54700;51.796;10.956;2022-12-18T15:13:58;-1.60;67.70
67901;DHT22;54700;51.796;10.956;2022-12-18T15:16:25;-1.60;67.70
67901;DHT22;54700;51.796;10.956;2022-12-18T15:18:52;-1.60;67.60
67901;DHT22;54700;51.796;10.956;2022-12-18T15:21:20;-1.60;67.60
67901;DHT22;54700;51.796;10.956;2022-12-18T15:23:48;-1.60;66.40
67901;DHT22;54700;51.796;10.956;2022-12-18T15:26:16;-1.60;65.90
67901;DHT22;54700;51.796;10.956;2022-12-18T15:28:47;-1.50;65.70
67901;DHT22;54700;51.796;10.956;2022-12-18T15:31:21;-1.50;65.40
67901;DHT22;54700;51.796;10.956;2022-12-18T15:34:00;-1.50;65.10
67901;DHT22;54700;51.796;10.956;2022-12-18T15:36:35;-1.50;65.40
67901;DHT22;54700;51.796;10.956;2022-12-18T15:39:03;-1.50;64.90
67901;DHT22;54700;51.796;10.956;2022-12-18T15:41:31;-1.40;65.00
67901;DHT22;54700;51.796;10.956;2022-12-18T15:44:00;-1.50;65.30
67901;DHT22;54700;51.796;10.956;2022-12-18T15:46:26;-1.50;65.20
67901;DHT22;54700;51.796;10.956;2022-12-18T15:48:54;-1.50;65.50
67901;DHT22;54700;51.796;10.956;2022-12-18T15:51:22;-1.50;65.40
67901;DHT22;54700;51.796;10.956;2022-12-18T15:53:53;-1.60;65.80
67901;DHT22;54700;51.796;10.956;2022-12-18T15:56:22;-1.50;65.80
67901;DHT22;54700;51.796;10.956;2022-12-18T15:59:10;-1.60;65.60
67901;DHT22;54700;51.796;10.956;2022-12-18T16:01:38;-1.60;65.70
67901;DHT22;54700;51.796;10.956;2022-12-18T16:04:06;-1.60;65.50
67901;DHT22;54700;51.796;10.956;2022-12-18T16:06:33;-1.50;65.50